KCLM

William R Fairchild International Airport

Port Angeles, Washington, USA
METAR KCLM 240153Z AUTO 30015G22KT 10SM CLR 16/12 A2984 RMK AO2 SLP103 T01560117
Observed Flight Rules
May-24 @ 01:53 UTC (23 minutes ago) Visual Flight Rules
Wind Visibility Clouds
300° at 15 knots
 Gusting to 22 knots
10 miles
  • Clear skies
Temperatures Readings
Current 16°C / 61°F
Dewpoint 12°C / 54°F
Humidity 77%
Altimeter 29.84" Hg
Pressure 1010.3 hPa
Elevation 85
METAR KCLM 240153Z AUTO 30015G22KT 10SM CLR 16/12 A2984 RMK AO2 SLP103 T01560117
Observed Flight Rules
May-24 @ 01:53 UTC
(23 minutes ago)
VFR
Wind Visibility
300° at 15 knots
 Gusting to 22 knots
10 miles
Clouds
  • Clear skies
Temperature Dewpoint
16°C / 61°F 12°C / 54°F
Humidity Altimeter Pressure
77% 29.84" Hg 1010.3 hPa